Time;durP1;ratioP1;P1;durP2;ratioP2;P2;SDS_P1;SDS_P2;PMS_P1;PMS_P2;Temp;Humidity;BMP_temperature;BMP_pressure;BME280_temperature;BME280_humidity;BME280_pressure;Samples;Min_cycle;Max_cycle;Signal;HPM_P1;HPM_P2
2021/07/05 00:02:02;;;;;;;2.35;0.80;;;23.20;69.00;;;;;;5247746;28;20535;-48
2021/07/05 00:04:36;;;;;;;1.90;0.70;;;23.20;69.00;;;;;;5238783;28;20048;-49
2021/07/05 00:07:09;;;;;;;3.70;0.85;;;23.20;69.00;;;;;;5244401;28;20324;-46
2021/07/05 00:09:41;;;;;;;3.05;0.75;;;23.20;69.10;;;;;;5244313;28;20048;-46
2021/07/05 00:12:14;;;;;;;2.05;0.68;;;23.20;69.00;;;;;;5226491;28;20048;-49
2021/07/05 00:14:46;;;;;;;1.15;0.70;;;23.20;69.00;;;;;;5248837;28;20036;-47
2021/07/05 00:17:19;;;;;;;6.43;0.93;;;23.20;69.00;;;;;;5246495;28;20060;-49
2021/07/05 00:19:51;;;;;;;1.42;0.70;;;23.20;69.00;;;;;;5246315;28;20039;-45
2021/07/05 00:22:25;;;;;;;3.67;0.80;;;23.20;69.00;;;;;;5229622;28;20052;-59
2021/07/05 00:24:58;;;;;;;3.40;0.80;;;23.20;69.00;;;;;;5242313;28;20048;-49
2021/07/05 00:27:30;;;;;;;3.28;0.70;;;23.10;68.90;;;;;;5247237;28;20401;-52
2021/07/05 00:30:05;;;;;;;4.03;1.15;;;23.10;68.90;;;;;;5244801;28;20048;-52
2021/07/05 00:32:38;;;;;;;3.55;0.75;;;23.10;68.80;;;;;;5234803;28;20041;-48
2021/07/05 00:35:13;;;;;;;1.40;0.60;;;23.10;68.80;;;;;;5231826;28;20044;-46
2021/07/05 00:37:46;;;;;;;1.75;0.60;;;23.10;68.90;;;;;;5245894;28;20041;-49
2021/07/05 00:40:19;;;;;;;2.58;0.80;;;23.10;68.90;;;;;;5245609;28;20040;-49
2021/07/05 00:42:53;;;;;;;1.65;1.10;;;23.10;68.90;;;;;;5244800;28;20073;-53
2021/07/05 00:45:27;;;;;;;3.97;0.80;;;23.10;68.90;;;;;;5237760;28;20040;-49
2021/07/05 00:48:00;;;;;;;0.98;0.50;;;23.10;68.90;;;;;;5243993;28;20045;-50
2021/07/05 00:50:32;;;;;;;1.40;0.75;;;23.10;69.00;;;;;;5244454;28;20052;-49
2021/07/05 00:53:05;;;;;;;2.00;0.77;;;23.10;68.90;;;;;;5245426;28;20051;-56
2021/07/05 00:55:38;;;;;;;1.88;0.60;;;23.10;68.90;;;;;;5247333;28;20294;-48
2021/07/05 00:58:10;;;;;;;3.10;0.73;;;23.10;68.90;;;;;;5250179;28;20055;-46
2021/07/05 01:00:43;;;;;;;2.33;1.25;;;23.10;68.90;;;;;;5247286;28;20039;-48
2021/07/05 01:03:15;;;;;;;2.35;0.70;;;23.00;68.90;;;;;;5245364;28;20477;-54
2021/07/05 01:05:48;;;;;;;1.42;0.60;;;23.00;68.90;;;;;;5239468;28;20051;-47
2021/07/05 01:08:21;;;;;;;2.00;0.80;;;23.00;68.80;;;;;;5208482;28;20519;-56
2021/07/05 01:10:54;;;;;;;3.13;0.63;;;23.00;68.80;;;;;;5244881;28;20660;-51
2021/07/05 01:13:26;;;;;;;0.73;0.60;;;23.00;68.80;;;;;;5241104;28;20154;-48
2021/07/05 01:15:59;;;;;;;2.67;0.70;;;23.00;68.80;;;;;;5241765;28;20052;-51
2021/07/05 01:18:33;;;;;;;2.93;0.90;;;23.00;68.80;;;;;;5245803;28;20034;-45
2021/07/05 01:21:05;;;;;;;3.90;0.70;;;23.00;68.80;;;;;;5247185;28;20052;-48
2021/07/05 01:23:38;;;;;;;1.70;0.60;;;23.00;68.70;;;;;;5246739;28;20060;-49
2021/07/05 01:26:11;;;;;;;2.13;0.50;;;23.00;68.80;;;;;;5247452;28;20044;-48
2021/07/05 01:28:44;;;;;;;0.73;0.63;;;23.00;68.80;;;;;;5246247;28;20294;-48
2021/07/05 01:31:17;;;;;;;;;;;23.00;68.80;;;;;;5246296;28;20040;-51
2021/07/05 01:33:52;;;;;;;0.85;0.65;;;22.90;68.80;;;;;;5251606;28;19924;-50
2021/07/05 01:36:24;;;;;;;2.30;0.70;;;22.90;68.90;;;;;;5244971;28;20047;-46
2021/07/05 01:38:57;;;;;;;1.73;0.90;;;22.90;68.90;;;;;;5246688;28;20414;-53
2021/07/05 01:41:29;;;;;;;1.20;0.70;;;22.90;68.90;;;;;;5246197;28;20052;-48
2021/07/05 01:44:03;;;;;;;1.08;0.70;;;23.00;68.90;;;;;;5238309;28;20076;-51
2021/07/05 01:46:35;;;;;;;5.50;0.90;;;23.00;69.00;;;;;;5246191;28;20056;-55
2021/07/05 01:49:08;;;;;;;1.47;0.63;;;22.90;68.80;;;;;;5246864;28;20050;-45
2021/07/05 01:51:41;;;;;;;3.50;0.80;;;22.90;68.80;;;;;;5244133;28;20759;-55
2021/07/05 01:54:15;;;;;;;4.63;0.90;;;22.90;68.80;;;;;;5246166;28;20051;-45
2021/07/05 01:56:47;;;;;;;;;;;22.90;68.80;;;;;;5240651;28;20444;-52
2021/07/05 01:59:37;;;;;;;1.00;0.60;;;22.90;68.70;;;;;;5249026;28;19928;-52
2021/07/05 02:02:10;;;;;;;6.53;0.90;;;22.90;68.90;;;;;;5237689;28;20131;-49
2021/07/05 02:04:44;;;;;;;4.47;1.00;;;22.90;68.80;;;;;;5214271;28;20063;-58
2021/07/05 02:07:18;;;;;;;4.68;0.85;;;22.90;68.80;;;;;;5248110;28;20044;-46
2021/07/05 02:09:50;;;;;;;6.13;1.52;;;22.90;68.90;;;;;;5258866;28;20052;-47
2021/07/05 02:12:23;;;;;;;3.47;0.87;;;22.90;68.70;;;;;;5244378;28;20048;-46
2021/07/05 02:14:55;;;;;;;1.67;0.70;;;22.90;68.70;;;;;;5242202;28;20040;-49
2021/07/05 02:17:28;;;;;;;2.63;0.98;;;22.90;68.70;;;;;;5240629;28;20036;-52
2021/07/05 02:20:02;;;;;;;2.00;0.80;;;22.90;68.70;;;;;;5242438;28;20045;-49
2021/07/05 02:22:35;;;;;;;3.47;0.80;;;22.90;68.70;;;;;;5245876;28;20056;-46
2021/07/05 02:25:10;;;;;;;1.33;0.85;;;22.90;68.80;;;;;;5238145;28;20045;-59
2021/07/05 02:27:43;;;;;;;1.30;0.90;;;22.90;68.80;;;;;;5238801;28;20338;-51
2021/07/05 02:30:19;;;;;;;1.73;0.70;;;22.90;68.70;;;;;;5239538;28;20052;-48
2021/07/05 02:32:53;;;;;;;2.15;0.80;;;22.90;68.70;;;;;;5242554;28;20385;-47
2021/07/05 02:35:29;;;;;;;2.08;1.00;;;22.90;68.70;;;;;;5246180;28;20416;-47
2021/07/05 02:38:08;;;;;;;3.88;0.60;;;22.90;68.70;;;;;;5245087;28;20040;-51
2021/07/05 02:40:44;;;;;;;1.50;0.60;;;22.90;68.70;;;;;;5225286;28;20056;-55
2021/07/05 02:43:18;;;;;;;2.60;1.00;;;22.80;68.70;;;;;;5234791;28;20062;-51
2021/07/05 02:45:54;;;;;;;4.85;1.35;;;22.90;68.70;;;;;;5244778;28;20059;-53
2021/07/05 02:48:29;;;;;;;4.82;1.00;;;22.80;68.70;;;;;;5247272;28;20063;-53
2021/07/05 02:51:04;;;;;;;1.08;0.90;;;22.80;68.70;;;;;;5244552;28;20051;-49
2021/07/05 02:53:37;;;;;;;3.90;1.05;;;22.80;68.70;;;;;;5243797;28;20051;-56
2021/07/05 02:56:10;;;;;;;3.77;0.97;;;22.90;68.70;;;;;;5242686;28;20048;-48
2021/07/05 02:58:42;;;;;;;2.58;0.80;;;22.80;68.60;;;;;;5245417;28;20298;-48
2021/07/05 03:01:17;;;;;;;1.52;0.85;;;22.80;68.60;;;;;;5244414;28;20040;-47
2021/07/05 03:03:50;;;;;;;1.48;0.63;;;22.80;68.60;;;;;;5241936;28;20114;-51
2021/07/05 03:06:23;;;;;;;1.33;0.80;;;22.80;68.70;;;;;;5244691;28;20056;-49
2021/07/05 03:08:56;;;;;;;4.25;1.10;;;22.80;68.70;;;;;;5242248;28;20067;-52
2021/07/05 03:11:29;;;;;;;0.90;0.77;;;22.80;68.70;;;;;;5246191;28;20063;-46
2021/07/05 03:14:02;;;;;;;4.75;0.90;;;22.80;68.70;;;;;;5242919;28;20040;-51
2021/07/05 03:16:34;;;;;;;1.88;0.90;;;22.80;68.70;;;;;;5237059;28;20381;-49
2021/07/05 03:19:07;;;;;;;2.35;0.82;;;22.80;68.70;;;;;;5242410;28;20040;-47
2021/07/05 03:21:40;;;;;;;5.18;0.85;;;22.80;68.70;;;;;;5243871;28;20054;-46
2021/07/05 03:24:13;;;;;;;1.98;0.80;;;22.80;68.70;;;;;;5245161;28;20044;-51
2021/07/05 03:26:45;;;;;;;1.77;0.80;;;22.80;68.70;;;;;;5250626;28;20062;-45
2021/07/05 03:29:18;;;;;;;1.48;0.90;;;22.80;68.70;;;;;;5246904;28;20110;-47
2021/07/05 03:31:50;;;;;;;1.17;0.88;;;22.80;68.60;;;;;;5244234;28;20049;-52
2021/07/05 03:34:23;;;;;;;4.88;1.00;;;22.80;68.70;;;;;;5247923;28;20404;-57
2021/07/05 03:36:56;;;;;;;3.38;0.82;;;22.70;68.60;;;;;;5246360;28;20045;-48
2021/07/05 03:39:28;;;;;;;1.33;0.80;;;22.80;68.60;;;;;;5232977;28;20052;-57
2021/07/05 03:42:01;;;;;;;2.72;0.88;;;22.80;68.70;;;;;;5250489;28;20621;-49
2021/07/05 03:44:33;;;;;;;3.95;0.95;;;22.80;68.70;;;;;;5238073;28;20044;-45
2021/07/05 03:47:06;;;;;;;1.33;0.90;;;22.70;68.70;;;;;;5247364;28;20590;-47
2021/07/05 03:49:39;;;;;;;1.02;0.95;;;22.80;68.70;;;;;;5248346;28;20071;-51
2021/07/05 03:52:12;;;;;;;1.83;0.90;;;22.80;68.70;;;;;;5238535;28;20449;-48
2021/07/05 03:54:45;;;;;;;1.27;0.97;;;22.80;68.60;;;;;;5245724;28;20048;-60
2021/07/05 03:57:25;;;;;;;5.47;0.85;;;22.80;68.60;;;;;;5243812;28;20492;-48
2021/07/05 03:59:58;;;;;;;1.55;0.70;;;22.80;68.60;;;;;;5249059;28;20039;-47
2021/07/05 04:02:31;;;;;;;0.95;0.80;;;22.70;68.50;;;;;;5245534;28;20044;-47
2021/07/05 04:05:04;;;;;;;3.10;1.00;;;22.80;68.50;;;;;;5244917;28;20455;-51
2021/07/05 04:07:37;;;;;;;2.30;1.40;;;22.70;68.50;;;;;;5240853;28;20063;-51
2021/07/05 04:10:11;;;;;;;5.07;1.10;;;22.70;69.10;;;;;;5240233;28;20051;-56
2021/07/05 04:12:44;;;;;;;1.50;0.90;;;22.70;68.50;;;;;;5231761;28;20052;-56
2021/07/05 04:15:17;;;;;;;4.55;1.02;;;22.70;68.50;;;;;;5235410;28;20062;-59
2021/07/05 04:17:50;;;;;;;3.72;0.85;;;22.70;68.60;;;;;;5238034;28;20040;-49
2021/07/05 04:20:24;;;;;;;2.00;0.97;;;22.70;68.70;;;;;;5231370;28;20048;-54
2021/07/05 04:22:56;;;;;;;1.30;0.77;;;22.70;68.80;;;;;;5238756;28;20062;-47
2021/07/05 04:25:28;;;;;;;1.25;0.82;;;22.70;68.90;;;;;;5236894;28;20404;-50
2021/07/05 04:28:02;;;;;;;2.70;0.70;;;22.70;68.90;;;;;;5236910;28;20051;-54
2021/07/05 04:30:36;;;;;;;2.08;0.90;;;22.70;68.90;;;;;;5247346;28;20052;-46
2021/07/05 04:33:09;;;;;;;2.33;0.95;;;22.80;69.00;;;;;;5249055;28;20051;-53
2021/07/05 04:35:41;;;;;;;2.85;0.82;;;22.80;69.00;;;;;;5245132;28;20682;-47
2021/07/05 04:38:14;;;;;;;2.38;0.88;;;22.70;68.90;;;;;;5237896;28;20048;-54
2021/07/05 04:40:48;;;;;;;2.10;0.80;;;22.80;69.00;;;;;;5233785;28;20074;-49
2021/07/05 04:43:21;;;;;;;0.85;0.57;;;22.80;69.00;;;;;;5242152;28;20051;-59
2021/07/05 04:45:55;;;;;;;1.65;0.90;;;22.80;69.00;;;;;;5238203;28;20047;-52
2021/07/05 04:48:27;;;;;;;0.75;0.70;;;22.80;69.00;;;;;;5243026;28;20060;-46
2021/07/05 04:51:01;;;;;;;2.60;0.70;;;22.70;69.00;;;;;;5240118;28;20504;-46
2021/07/05 04:53:34;;;;;;;1.70;0.70;;;22.80;69.00;;;;;;5243782;28;20162;-48
2021/07/05 04:56:07;;;;;;;1.30;0.90;;;22.70;69.10;;;;;;5239179;28;20040;-45
2021/07/05 04:58:39;;;;;;;1.63;0.87;;;22.80;69.00;;;;;;5239984;28;20052;-50
2021/07/05 05:01:12;;;;;;;2.08;0.55;;;22.80;69.00;;;;;;5227728;28;20048;-46
2021/07/05 05:03:44;;;;;;;3.22;0.70;;;22.80;69.00;;;;;;5239828;28;20508;-48
2021/07/05 05:06:16;;;;;;;4.90;0.80;;;22.80;69.40;;;;;;5241450;28;20048;-49
2021/07/05 05:08:51;;;;;;;6.97;1.35;;;22.80;69.10;;;;;;5235446;28;20060;-52
2021/07/05 05:11:24;;;;;;;4.13;1.10;;;22.80;68.60;;;;;;5236895;28;20290;-51
2021/07/05 05:13:58;;;;;;;6.15;1.30;;;22.80;68.50;;;;;;5236118;28;20040;-49
2021/07/05 05:16:30;;;;;;;11.80;1.73;;;22.80;69.20;;;;;;5227157;28;20047;-51
2021/07/05 05:19:03;;;;;;;7.75;1.70;;;22.70;68.70;;;;;;5232772;28;20041;-48
2021/07/05 05:21:36;;;;;;;5.78;1.25;;;22.80;68.70;;;;;;5242401;28;20044;-48
2021/07/05 05:24:08;;;;;;;7.57;1.48;;;22.80;68.60;;;;;;5236045;28;20759;-45
2021/07/05 05:26:41;;;;;;;5.63;1.08;;;22.70;68.70;;;;;;5228850;28;20058;-47
2021/07/05 05:29:14;;;;;;;6.07;1.10;;;22.70;68.70;;;;;;5215499;28;20088;-50
2021/07/05 05:31:46;;;;;;;6.20;1.17;;;22.70;68.80;;;;;;5216722;28;20549;-54
2021/07/05 05:34:19;;;;;;;9.48;1.38;;;22.70;68.90;;;;;;5219280;28;20067;-52
2021/07/05 05:36:52;;;;;;;7.87;1.37;;;22.70;69.00;;;;;;5238397;28;20044;-50
2021/07/05 05:39:24;;;;;;;3.88;1.63;;;22.70;69.20;;;;;;5232831;28;20048;-54
2021/07/05 05:41:56;;;;;;;11.25;1.38;;;22.70;69.70;;;;;;5239053;28;20044;-50
2021/07/05 05:44:31;;;;;;;7.18;1.70;;;22.80;70.20;;;;;;5232182;28;21067;-49
2021/07/05 05:47:03;;;;;;;11.30;1.63;;;22.70;70.10;;;;;;5240799;28;20052;-59
2021/07/05 05:49:36;;;;;;;5.20;1.27;;;22.80;70.10;;;;;;5236190;28;20052;-47
2021/07/05 05:52:08;;;;;;;13.52;1.25;;;22.90;70.10;;;;;;5242064;28;20166;-53
2021/07/05 05:54:41;;;;;;;13.65;1.30;;;22.80;70.00;;;;;;5240381;28;20520;-52
2021/07/05 05:57:26;;;;;;;4.80;1.30;;;22.90;70.00;;;;;;5243378;28;20040;-57
2021/07/05 06:00:01;;;;;;;5.03;1.30;;;22.90;70.10;;;;;;5233153;28;20645;-46
2021/07/05 06:02:35;;;;;;;3.53;1.20;;;22.90;70.00;;;;;;5236074;28;20083;-51
2021/07/05 06:05:08;;;;;;;7.88;1.40;;;22.90;69.90;;;;;;5245299;28;20047;-49
2021/07/05 06:07:47;;;;;;;9.95;1.60;;;23.00;69.90;;;;;;5238019;28;20040;-50
2021/07/05 06:10:22;;;;;;;7.07;1.25;;;23.00;69.80;;;;;;5244156;28;20154;-50
2021/07/05 06:12:56;;;;;;;5.38;1.05;;;23.00;69.80;;;;;;5238732;28;20059;-54
2021/07/05 06:15:29;;;;;;;6.22;1.10;;;23.00;69.80;;;;;;5235613;28;20525;-47
2021/07/05 06:18:05;;;;;;;5.28;0.90;;;23.00;69.80;;;;;;5239118;28;20576;-48
2021/07/05 06:20:37;;;;;;;4.93;1.00;;;23.00;69.70;;;;;;5240420;28;20063;-51
2021/07/05 06:23:21;;;;;;;2.75;0.82;;;23.00;69.70;;;;;;5242398;28;20047;-48
2021/07/05 06:25:55;;;;;;;4.00;1.35;;;23.10;69.80;;;;;;5239453;28;20052;-45
2021/07/05 06:28:30;;;;;;;5.97;1.38;;;23.10;69.80;;;;;;5240913;28;20052;-50
2021/07/05 06:31:04;;;;;;;1.70;0.90;;;23.10;69.70;;;;;;5238227;28;20059;-50
2021/07/05 06:33:36;;;;;;;4.70;1.10;;;23.10;69.80;;;;;;5242312;28;20504;-53
2021/07/05 06:36:11;;;;;;;4.50;1.48;;;23.10;69.70;;;;;;5240286;28;20416;-53
2021/07/05 06:38:44;;;;;;;1.55;0.85;;;23.10;69.70;;;;;;5234645;28;20048;-56
2021/07/05 06:41:17;;;;;;;3.97;0.95;;;23.10;69.70;;;;;;5245052;28;20045;-49
2021/07/05 06:43:49;;;;;;;2.25;0.90;;;23.10;69.60;;;;;;5238812;28;20489;-54
2021/07/05 06:46:22;;;;;;;5.28;0.93;;;23.10;69.60;;;;;;5241699;28;20389;-51
2021/07/05 06:48:54;;;;;;;5.23;1.00;;;23.10;69.60;;;;;;5242150;28;20048;-56
2021/07/05 06:51:26;;;;;;;8.55;1.00;;;23.10;69.60;;;;;;5241370;28;20053;-50
2021/07/05 06:53:59;;;;;;;4.05;1.13;;;23.20;69.60;;;;;;5239877;28;20515;-53
2021/07/05 06:56:31;;;;;;;6.30;1.48;;;23.20;69.60;;;;;;5249993;28;20047;-46
2021/07/05 06:59:04;;;;;;;1.75;0.88;;;23.20;69.60;;;;;;5241314;28;20047;-59
2021/07/05 07:01:36;;;;;;;1.50;0.90;;;23.20;69.50;;;;;;5232043;28;20508;-48
2021/07/05 07:04:09;;;;;;;3.67;0.83;;;23.20;69.50;;;;;;5233328;28;20047;-50
2021/07/05 07:06:42;;;;;;;3.58;0.90;;;23.20;69.60;;;;;;5227653;28;20308;-56
2021/07/05 07:09:16;;;;;;;3.10;1.30;;;23.20;69.60;;;;;;5230869;28;20060;-52
2021/07/05 07:11:48;;;;;;;2.58;1.05;;;23.20;69.60;;;;;;5241531;28;20045;-49
2021/07/05 07:14:22;;;;;;;6.30;1.05;;;23.20;69.60;;;;;;5240377;28;20390;-52
2021/07/05 07:17:02;;;;;;;2.40;0.80;;;23.20;69.60;;;;;;5244136;28;20052;-48
2021/07/05 07:19:35;;;;;;;2.33;0.90;;;23.20;69.70;;;;;;5244457;28;20040;-55
2021/07/05 07:22:07;;;;;;;3.90;0.82;;;23.30;69.70;;;;;;5236153;28;20750;-53
2021/07/05 07:24:40;;;;;;;3.47;0.98;;;23.30;69.70;;;;;;5242471;28;20040;-50
2021/07/05 07:27:13;;;;;;;1.67;0.80;;;23.20;69.60;;;;;;5240226;28;20037;-53
2021/07/05 07:29:45;;;;;;;2.83;0.95;;;23.30;69.70;;;;;;5241006;28;20848;-46
2021/07/05 07:32:18;;;;;;;2.40;1.00;;;23.30;69.70;;;;;;5247877;28;20385;-52
2021/07/05 07:34:50;;;;;;;4.35;0.75;;;23.30;69.70;;;;;;5243131;28;20035;-48
2021/07/05 07:37:23;;;;;;;4.30;1.20;;;23.30;69.60;;;;;;5236524;28;20055;-51
2021/07/05 07:39:59;;;;;;;3.83;0.68;;;23.30;69.60;;;;;;5241067;28;21353;-49
2021/07/05 07:42:31;;;;;;;1.75;1.02;;;23.30;69.60;;;;;;5236456;28;20059;-59
2021/07/05 07:45:04;;;;;;;3.70;0.90;;;23.30;69.60;;;;;;5236335;28;20047;-53
2021/07/05 07:47:37;;;;;;;4.18;1.00;;;23.30;69.60;;;;;;5233312;28;20504;-51
2021/07/05 07:50:12;;;;;;;8.25;1.23;;;23.30;69.60;;;;;;5232369;28;20628;-49
2021/07/05 07:52:45;;;;;;;7.20;1.15;;;23.30;69.60;;;;;;5242669;28;20062;-59
2021/07/05 07:55:19;;;;;;;5.90;1.15;;;23.30;69.60;;;;;;5237417;28;20493;-58
2021/07/05 07:57:51;;;;;;;11.77;1.35;;;23.30;69.50;;;;;;5237223;28;20412;-55
2021/07/05 08:00:24;;;;;;;3.15;1.10;;;23.40;69.70;;;;;;5240552;28;20555;-50
2021/07/05 08:02:57;;;;;;;6.22;1.17;;;23.30;69.50;;;;;;5235755;28;20059;-53
2021/07/05 08:05:29;;;;;;;4.53;1.30;;;23.40;69.60;;;;;;5233075;28;20416;-50
2021/07/05 08:08:02;;;;;;;4.38;1.10;;;23.30;69.50;;;;;;5233426;28;20110;-48
2021/07/05 08:10:35;;;;;;;7.28;1.00;;;23.40;69.50;;;;;;5215570;28;20520;-53
2021/07/05 08:13:07;;;;;;;5.15;1.23;;;23.40;69.40;;;;;;5231357;28;20050;-58
2021/07/05 08:15:40;;;;;;;5.00;1.40;;;23.40;69.30;;;;;;5236965;28;20036;-52
2021/07/05 08:18:12;;;;;;;7.35;0.95;;;23.40;69.30;;;;;;5238386;28;20092;-51
2021/07/05 08:20:45;;;;;;;10.20;0.90;;;23.40;69.20;;;;;;5234802;28;20069;-54
2021/07/05 08:23:18;;;;;;;6.07;1.20;;;23.40;69.70;;;;;;5229474;28;20492;-53
2021/07/05 08:25:50;;;;;;;5.13;1.13;;;23.40;69.00;;;;;;5237208;28;21314;-52
2021/07/05 08:28:24;;;;;;;3.05;1.20;;;23.40;69.00;;;;;;5233957;28;20515;-49
2021/07/05 08:30:58;;;;;;;3.92;0.95;;;23.40;68.90;;;;;;5240588;28;20044;-55
2021/07/05 08:33:31;;;;;;;3.97;1.20;;;23.40;68.80;;;;;;5236764;28;20051;-50
2021/07/05 08:36:04;;;;;;;5.77;0.93;;;23.50;68.80;;;;;;5236109;28;20416;-53
2021/07/05 08:38:37;;;;;;;3.35;1.00;;;23.50;68.60;;;;;;5239055;28;20040;-52
2021/07/05 08:41:09;;;;;;;7.20;1.20;;;23.50;68.50;;;;;;5238765;28;20104;-49
2021/07/05 08:43:45;;;;;;;4.63;1.23;;;23.50;68.40;;;;;;5226282;28;20059;-50
2021/07/05 08:46:21;;;;;;;2.83;1.00;;;23.50;68.30;;;;;;5237207;28;20044;-55
2021/07/05 08:48:53;;;;;;;3.00;1.10;;;23.50;68.30;;;;;;5227927;28;20047;-55
2021/07/05 08:51:29;;;;;;;3.50;1.00;;;23.50;68.30;;;;;;5236576;28;20044;-48
2021/07/05 08:54:02;;;;;;;3.78;1.10;;;23.50;68.20;;;;;;5238656;28;20040;-53
2021/07/05 08:56:34;;;;;;;5.25;1.10;;;23.50;68.20;;;;;;5217799;28;20432;-59
2021/07/05 08:59:06;;;;;;;2.80;1.10;;;23.50;68.20;;;;;;5228834;28;25200;-55
2021/07/05 09:01:39;;;;;;;1.92;0.80;;;23.60;68.30;;;;;;5233763;28;20050;-57
2021/07/05 09:04:15;;;;;;;8.15;1.83;;;23.60;68.20;;;;;;5241150;28;20405;-51
2021/07/05 09:07:06;;;;;;;4.75;1.50;;;23.60;68.30;;;;;;5236796;28;20055;-52
2021/07/05 09:09:38;;;;;;;4.07;0.90;;;23.60;68.20;;;;;;5237470;28;20505;-54
2021/07/05 09:12:12;;;;;;;2.43;0.90;;;23.60;68.00;;;;;;5237638;28;20060;-57
2021/07/05 09:14:44;;;;;;;;;;;23.60;67.90;;;;;;5238891;28;20294;-57
2021/07/05 09:17:17;;;;;;;3.88;1.20;;;23.50;67.80;;;;;;5244200;28;19928;-57
2021/07/05 09:19:50;;;;;;;7.55;1.10;;;23.60;67.80;;;;;;5237022;28;20059;-55
2021/07/05 09:22:22;;;;;;;1.83;1.20;;;23.60;67.70;;;;;;5239405;28;21080;-55
2021/07/05 09:24:57;;;;;;;6.53;1.63;;;23.60;67.70;;;;;;5229384;28;20059;-56
2021/07/05 09:27:33;;;;;;;1.55;1.00;;;23.60;67.60;;;;;;5234967;28;20064;-57
2021/07/05 09:30:10;;;;;;;1.42;0.82;;;23.60;67.50;;;;;;5240335;28;20056;-55
2021/07/05 09:32:42;;;;;;;2.97;1.00;;;23.60;67.50;;;;;;5242102;28;20040;-53
2021/07/05 09:35:15;;;;;;;1.67;0.90;;;23.60;67.50;;;;;;5236061;28;20036;-52
2021/07/05 09:37:55;;;;;;;2.95;1.08;;;23.60;67.60;;;;;;5237939;28;20044;-56
2021/07/05 09:40:29;;;;;;;2.70;1.25;;;23.70;67.70;;;;;;5233815;28;20041;-50
2021/07/05 09:43:19;;;;;;;5.88;1.25;;;23.70;67.70;;;;;;5244435;28;20047;-58
2021/07/05 09:45:51;;;;;;;2.28;1.00;;;23.70;67.70;;;;;;5237414;28;20514;-51
2021/07/05 09:48:25;;;;;;;1.58;0.90;;;23.70;67.70;;;;;;5237880;28;20056;-61
2021/07/05 09:51:03;;;;;;;1.90;0.85;;;23.70;67.70;;;;;;5230625;28;20048;-54
2021/07/05 09:53:41;;;;;;;3.83;0.82;;;23.70;68.30;;;;;;5234559;28;20460;-55
2021/07/05 09:56:40;;;;;;;6.43;1.10;;;23.70;68.00;;;;;;5233305;28;20036;-58
2021/07/05 09:59:19;;;;;;;2.05;0.93;;;23.70;67.60;;;;;;5238169;28;20158;-56
2021/07/05 10:01:57;;;;;;;4.07;1.13;;;23.70;67.70;;;;;;5240947;28;20044;-55
2021/07/05 10:04:38;;;;;;;6.22;1.30;;;23.70;67.70;;;;;;5240008;28;20052;-50
2021/07/05 10:07:11;;;;;;;3.20;1.00;;;23.70;67.60;;;;;;5258885;28;20048;-55
2021/07/05 10:09:48;;;;;;;1.47;0.90;;;23.70;67.50;;;;;;5245688;28;20051;-54
2021/07/05 10:12:27;;;;;;;4.18;1.20;;;23.70;67.50;;;;;;5234883;28;20051;-61
2021/07/05 10:15:11;;;;;;;5.75;1.10;;;23.80;67.50;;;;;;5231651;28;20084;-56
2021/07/05 10:17:48;;;;;;;3.70;0.95;;;23.80;67.50;;;;;;5234817;28;20062;-52
2021/07/05 10:20:25;;;;;;;5.15;1.05;;;23.80;67.50;;;;;;5237715;28;20044;-59
2021/07/05 10:23:00;;;;;;;3.58;1.10;;;23.80;67.50;;;;;;5236719;28;20051;-57
2021/07/05 10:25:42;;;;;;;5.32;1.13;;;23.80;67.60;;;;;;5237310;28;20074;-57
2021/07/05 10:28:16;;;;;;;2.90;1.30;;;23.80;67.70;;;;;;5237184;28;20047;-53
2021/07/05 10:30:51;;;;;;;4.18;1.33;;;23.80;67.70;;;;;;5232782;28;20067;-50
2021/07/05 10:33:23;;;;;;;2.17;1.00;;;23.80;67.80;;;;;;5238395;28;20523;-57
2021/07/05 10:36:02;;;;;;;2.92;1.38;;;23.90;67.80;;;;;;5248595;28;20052;-53
2021/07/05 10:38:41;;;;;;;1.80;1.10;;;23.90;67.90;;;;;;5243929;28;20529;-51
2021/07/05 10:41:16;;;;;;;4.47;1.67;;;23.90;67.90;;;;;;5239466;28;20032;-55
2021/07/05 10:43:55;;;;;;;2.28;1.45;;;23.90;67.90;;;;;;5242952;28;20048;-54
2021/07/05 10:46:55;;;;;;;2.25;1.13;;;23.90;67.90;;;;;;5241981;28;20039;-54
2021/07/05 10:49:27;;;;;;;4.30;1.33;;;23.90;67.80;;;;;;5251404;28;20063;-56
2021/07/05 10:52:03;;;;;;;3.42;1.52;;;23.90;67.80;;;;;;5243495;28;20403;-59
2021/07/05 10:54:52;;;;;;;4.93;1.40;;;23.90;67.90;;;;;;5244693;28;20055;-56
2021/07/05 10:57:33;;;;;;;6.70;1.55;;;23.90;67.80;;;;;;5248033;28;20500;-58
2021/07/05 11:00:15;;;;;;;1.98;1.33;;;23.90;67.90;;;;;;5242568;28;21975;-53
2021/07/05 11:02:49;;;;;;;3.55;1.45;;;23.90;67.90;;;;;;5247185;28;20051;-60
2021/07/05 11:05:47;;;;;;;4.43;1.20;;;23.90;67.90;;;;;;5238194;28;20052;-58
2021/07/05 11:08:26;;;;;;;2.65;1.20;;;23.90;67.90;;;;;;5240016;28;20051;-59
2021/07/05 11:11:10;;;;;;;6.95;1.33;;;23.90;67.80;;;;;;5242690;28;20064;-60
2021/07/05 11:13:45;;;;;;;3.17;1.15;;;23.90;67.80;;;;;;5236884;28;20036;-54
2021/07/05 11:16:18;;;;;;;4.28;1.13;;;23.90;67.80;;;;;;5231258;28;20119;-51
2021/07/05 11:18:50;;;;;;;4.25;1.42;;;23.90;67.80;;;;;;5230681;28;20052;-54
2021/07/05 11:21:22;;;;;;;3.08;1.42;;;23.90;67.80;;;;;;5223903;28;20044;-49
2021/07/05 11:23:56;;;;;;;4.22;1.50;;;23.90;67.70;;;;;;5241299;28;20036;-57
2021/07/05 11:26:34;;;;;;;;;;;23.90;67.80;;;;;;5245398;28;20528;-51
2021/07/05 11:29:16;;;;;;;6.93;1.77;;;23.90;67.80;;;;;;5245147;28;19931;-50
2021/07/05 11:31:55;;;;;;;2.53;1.42;;;23.90;67.80;;;;;;5236664;28;20048;-55
2021/07/05 11:34:36;;;;;;;4.95;1.30;;;23.90;67.80;;;;;;5238679;28;20051;-60
2021/07/05 11:37:12;;;;;;;2.20;1.60;;;23.90;67.80;;;;;;5248728;28;20056;-55
2021/07/05 11:39:50;;;;;;;4.32;1.35;;;24.00;67.80;;;;;;5243788;28;20129;-52
2021/07/05 11:42:42;;;;;;;6.93;1.58;;;24.00;67.70;;;;;;5239410;28;20040;-53
2021/07/05 11:45:39;;;;;;;3.33;1.80;;;24.00;67.70;;;;;;5243197;28;20063;-52
2021/07/05 11:48:40;;;;;;;2.20;1.55;;;24.00;67.70;;;;;;5217985;28;20051;-60
2021/07/05 11:51:32;;;;;;;3.40;1.42;;;24.00;67.70;;;;;;5239920;28;20062;-53
2021/07/05 11:54:06;;;;;;;6.45;1.70;;;24.10;67.80;;;;;;5241013;28;20056;-53
2021/07/05 11:56:43;;;;;;;9.50;2.00;;;24.10;67.80;;;;;;5249001;28;20052;-59
2021/07/05 11:59:26;;;;;;;10.93;2.00;;;24.10;67.90;;;;;;5233261;28;20110;-50
2021/07/05 12:02:13;;;;;;;6.57;1.55;;;24.10;67.90;;;;;;5231807;28;20059;-59
2021/07/05 12:04:47;;;;;;;7.15;1.88;;;24.10;68.00;;;;;;5222190;28;20044;-56
2021/07/05 12:07:24;;;;;;;13.18;2.15;;;24.00;68.00;;;;;;5223587;28;20052;-59
2021/07/05 12:09:56;;;;;;;10.63;1.90;;;24.10;68.20;;;;;;5233568;28;20047;-57
2021/07/05 12:12:30;;;;;;;9.23;1.85;;;24.20;68.30;;;;;;5232480;27;20048;-60
2021/07/05 12:15:04;;;;;;;8.63;1.95;;;24.20;68.20;;;;;;5232499;28;20051;-58
2021/07/05 12:17:36;;;;;;;8.65;2.20;;;24.20;68.10;;;;;;5212865;28;20048;-59
2021/07/05 12:20:10;;;;;;;11.50;2.50;;;24.30;68.20;;;;;;5223866;28;20452;-60
2021/07/05 12:22:43;;;;;;;16.35;2.25;;;24.30;68.30;;;;;;5231234;28;20052;-57
2021/07/05 12:25:16;;;;;;;18.33;2.30;;;24.40;68.60;;;;;;5233207;28;20040;-63
2021/07/05 12:27:49;;;;;;;13.83;2.00;;;24.50;68.60;;;;;;5227026;28;20043;-63
2021/07/05 12:30:24;;;;;;;10.73;2.53;;;24.60;68.60;;;;;;5218737;28;20475;-64
2021/07/05 12:33:02;;;;;;;20.58;2.45;;;24.60;68.80;;;;;;5227705;28;20051;-60
2021/07/05 12:35:36;;;;;;;18.70;2.67;;;24.70;69.40;;;;;;5222510;28;20047;-58
2021/07/05 12:38:13;;;;;;;24.50;3.03;;;24.70;69.10;;;;;;5228560;28;20044;-63
2021/07/05 12:40:46;;;;;;;15.23;2.20;;;24.80;68.70;;;;;;5213042;28;20040;-59
2021/07/05 12:43:18;;;;;;;13.90;2.22;;;24.80;68.90;;;;;;5219445;28;20921;-58
2021/07/05 12:45:53;;;;;;;18.63;2.42;;;24.90;68.90;;;;;;5220102;28;20499;-57
2021/07/05 12:48:29;;;;;;;9.02;2.05;;;24.90;68.50;;;;;;5223837;28;20420;-60
2021/07/05 12:51:04;;;;;;;16.73;2.60;;;25.00;68.50;;;;;;5215141;28;20040;-62
2021/07/05 12:53:37;;;;;;;15.40;1.95;;;25.00;68.20;;;;;;5207080;28;20052;-62
2021/07/05 12:56:23;;;;;;;9.95;1.73;;;25.00;67.90;;;;;;5220520;28;20048;-58
2021/07/05 12:58:58;;;;;;;23.52;3.45;;;25.00;66.70;;;;;;5211958;28;20052;-57
2021/07/05 13:01:35;;;;;;;19.13;3.25;;;25.00;66.70;;;;;;5222956;28;20512;-58
2021/07/05 13:04:28;;;;;;;14.90;2.55;;;25.10;66.70;;;;;;5229099;28;20044;-58
2021/07/05 13:07:02;;;;;;;12.85;2.25;;;25.10;66.50;;;;;;5235321;28;20048;-59
2021/07/05 13:09:35;;;;;;;16.95;2.85;;;25.20;66.50;;;;;;5219253;28;20048;-60
2021/07/05 13:12:15;;;;;;;9.52;1.90;;;25.20;66.40;;;;;;5233447;28;20051;-62
2021/07/05 13:14:48;;;;;;;7.32;2.47;;;25.20;66.30;;;;;;5234617;28;20524;-57
2021/07/05 13:17:21;;;;;;;;;;;25.20;66.30;;;;;;5229734;28;20052;-61
2021/07/05 13:20:07;;;;;;;11.85;2.20;;;25.20;66.30;;;;;;5221538;28;20267;-58
2021/07/05 13:22:54;;;;;;;8.32;1.80;;;25.20;66.40;;;;;;5218942;28;20043;-58
2021/07/05 13:25:26;;;;;;;5.75;1.67;;;25.20;65.90;;;;;;5216654;28;20444;-53
2021/07/05 13:28:15;;;;;;;17.77;2.45;;;25.10;65.60;;;;;;5219707;28;20485;-58